Time;durP1;ratioP1;P1;durP2;ratioP2;P2;SDS_P1;SDS_P2;PMS_P1;PMS_P2;Temp;Humidity;BMP_temperature;BMP_pressure;BME280_temperature;BME280_humidity;BME280_pressure;Samples;Min_cycle;Max_cycle;Signal;HPM_P1;HPM_P2
2022/09/10 00:02:18;;;;;;;3.73;2.33;;;16.50;99.90;;;;;;5068676;28;20392;-71
2022/09/10 00:04:44;;;;;;;4.20;2.60;;;16.50;99.90;;;;;;5069264;28;20680;-71
2022/09/10 00:07:10;;;;;;;2.90;2.40;;;16.40;99.90;;;;;;5071443;28;20699;-71
2022/09/10 00:09:36;;;;;;;3.65;2.33;;;16.40;99.90;;;;;;5070837;28;20803;-71
2022/09/10 00:12:02;;;;;;;5.47;2.47;;;16.40;99.90;;;;;;5071542;28;20395;-71
2022/09/10 00:14:27;;;;;;;3.63;2.50;;;16.40;99.90;;;;;;5070353;28;20402;-71
2022/09/10 00:16:53;;;;;;;3.78;2.70;;;16.40;99.90;;;;;;5071052;28;20403;-71
2022/09/10 00:19:20;;;;;;;3.25;2.53;;;16.40;99.90;;;;;;5070615;28;20380;-71
2022/09/10 00:21:49;;;;;;;3.38;2.60;;;16.40;99.90;;;;;;5071211;28;20645;-71
2022/09/10 00:24:15;;;;;;;3.97;2.50;;;16.40;99.90;;;;;;5071871;28;20458;-71
2022/09/10 00:26:41;;;;;;;4.07;2.60;;;16.40;99.90;;;;;;5069881;28;20873;-71
2022/09/10 00:29:09;;;;;;;3.60;2.45;;;16.30;99.90;;;;;;5067249;28;20380;-71
2022/09/10 00:31:36;;;;;;;2.50;2.30;;;16.30;99.90;;;;;;5069450;28;20394;-71
2022/09/10 00:34:02;;;;;;;3.33;2.60;;;16.30;99.90;;;;;;5068282;28;20403;-71
2022/09/10 00:36:35;;;;;;;3.72;2.33;;;16.40;99.90;;;;;;5071212;28;20387;-71
2022/09/10 00:39:04;;;;;;;4.20;2.40;;;16.40;99.90;;;;;;5071427;28;20567;-71
2022/09/10 00:41:32;;;;;;;3.10;2.70;;;16.40;99.90;;;;;;5071143;28;20403;-72
2022/09/10 00:44:01;;;;;;;2.90;2.22;;;16.40;99.90;;;;;;5072507;28;20384;-71
2022/09/10 00:46:30;;;;;;;4.65;2.70;;;16.30;99.90;;;;;;5072264;28;20779;-71
2022/09/10 00:48:58;;;;;;;3.17;2.30;;;16.30;99.90;;;;;;5072130;28;20791;-70
2022/09/10 00:51:28;;;;;;;4.65;2.40;;;16.40;99.90;;;;;;5071716;28;20388;-70
2022/09/10 00:53:54;;;;;;;5.35;2.55;;;16.30;99.90;;;;;;5071510;28;20400;-71
2022/09/10 00:56:20;;;;;;;3.33;2.20;;;16.30;99.90;;;;;;5085595;28;20763;-71
2022/09/10 00:58:47;;;;;;;6.15;3.30;;;16.30;99.90;;;;;;5068993;28;20449;-71
2022/09/10 01:01:13;;;;;;;6.05;3.85;;;16.40;99.90;;;;;;5069899;28;20404;-71
2022/09/10 01:03:41;;;;;;;9.88;5.80;;;16.40;99.90;;;;;;5067996;28;20436;-71
2022/09/10 01:06:07;;;;;;;12.60;8.40;;;16.40;99.90;;;;;;5069130;28;20478;-71
2022/09/10 01:08:33;;;;;;;12.27;7.57;;;16.40;99.90;;;;;;5069309;28;20463;-71
2022/09/10 01:11:25;;;;;;;5.90;4.20;;;16.40;99.90;;;;;;5084708;28;20748;-71
2022/09/10 01:14:17;;;;;;;4.00;3.15;;;16.40;99.90;;;;;;5047449;28;20767;-71
2022/09/10 01:17:26;;;;;;;4.53;3.45;;;16.40;99.90;;;;;;5072444;28;20371;-71
2022/09/10 01:20:00;;;;;;;5.07;2.97;;;16.40;99.90;;;;;;5070361;28;20402;-71
2022/09/10 01:22:39;;;;;;;3.10;2.50;;;16.30;99.90;;;;;;5070570;28;20387;-71
2022/09/10 01:25:27;;;;;;;3.00;2.42;;;16.40;99.90;;;;;;5070865;28;20476;-71
2022/09/10 01:27:56;;;;;;;4.93;2.50;;;16.40;99.90;;;;;;5071431;28;20375;-71
2022/09/10 01:30:54;;;;;;;4.03;2.50;;;16.40;99.90;;;;;;5070840;28;20388;-71
2022/09/10 01:33:36;;;;;;;4.25;2.47;;;16.40;99.90;;;;;;5072567;28;20466;-71
2022/09/10 01:36:11;;;;;;;2.80;2.43;;;16.40;99.90;;;;;;5071715;28;20415;-71
2022/09/10 01:38:40;;;;;;;3.75;2.35;;;16.30;99.90;;;;;;5071727;28;20683;-71
2022/09/10 01:41:06;;;;;;;3.80;2.17;;;16.40;99.90;;;;;;5072621;28;20419;-71
2022/09/10 01:43:32;;;;;;;2.35;2.15;;;16.40;99.90;;;;;;5072678;28;20695;-71
2022/09/10 01:46:19;;;;;;;2.20;2.00;;;16.30;99.90;;;;;;5072050;28;20942;-71
2022/09/10 01:49:13;;;;;;;3.03;2.25;;;16.40;99.90;;;;;;5087740;28;20384;-71
2022/09/10 01:52:08;;;;;;;3.17;2.10;;;16.40;99.90;;;;;;5073754;28;20452;-71
2022/09/10 01:54:50;;;;;;;4.65;2.30;;;16.40;99.90;;;;;;5072173;28;20442;-72
2022/09/10 01:57:42;;;;;;;2.28;1.88;;;16.30;99.90;;;;;;5073162;28;20418;-71
2022/09/10 02:00:09;;;;;;;2.80;2.00;;;16.40;99.90;;;;;;5086042;28;20414;-71
2022/09/10 02:02:45;;;;;;;2.92;1.80;;;16.30;99.90;;;;;;5070489;28;20391;-71
2022/09/10 02:05:12;;;;;;;1.95;1.65;;;16.40;99.90;;;;;;5070667;28;20719;-71
2022/09/10 02:07:38;;;;;;;2.80;1.90;;;16.40;99.90;;;;;;5070525;28;20380;-71
2022/09/10 02:10:06;;;;;;;2.77;1.97;;;16.40;99.90;;;;;;5070611;28;20649;-71
2022/09/10 02:12:33;;;;;;;2.78;1.90;;;16.40;99.90;;;;;;5069507;28;20395;-72
2022/09/10 02:14:59;;;;;;;3.92;2.20;;;16.40;99.90;;;;;;5070869;28;20474;-72
2022/09/10 02:17:30;;;;;;;2.10;1.80;;;16.30;99.90;;;;;;5070028;28;20470;-72
2022/09/10 02:19:57;;;;;;;2.20;2.00;;;16.30;99.90;;;;;;5071579;28;20426;-72
2022/09/10 02:22:23;;;;;;;4.70;2.45;;;16.30;99.90;;;;;;5086932;28;20460;-72
2022/09/10 02:24:50;;;;;;;4.38;1.90;;;16.30;99.90;;;;;;5070403;28;20395;-72
2022/09/10 02:27:16;;;;;;;2.17;1.77;;;16.30;99.90;;;;;;5071299;28;20436;-72
2022/09/10 02:29:41;;;;;;;2.25;1.80;;;16.30;99.90;;;;;;5072292;28;20396;-72
2022/09/10 02:32:08;;;;;;;2.77;2.07;;;16.20;99.90;;;;;;5071514;28;20383;-72
2022/09/10 02:34:35;;;;;;;1.73;1.63;;;16.20;99.90;;;;;;5069596;28;20391;-72
2022/09/10 02:37:02;;;;;;;2.78;2.13;;;16.20;99.90;;;;;;5070330;28;20384;-72
2022/09/10 02:39:27;;;;;;;2.63;2.00;;;16.30;99.90;;;;;;5070145;28;20395;-72
2022/09/10 02:41:54;;;;;;;2.97;2.00;;;16.20;99.90;;;;;;5070996;28;20473;-71
2022/09/10 02:44:20;;;;;;;3.25;2.00;;;16.20;99.90;;;;;;5071255;28;20371;-71
2022/09/10 02:46:46;;;;;;;3.58;2.17;;;16.20;99.90;;;;;;5068755;28;20633;-72
2022/09/10 02:49:12;;;;;;;2.13;1.80;;;16.20;99.90;;;;;;5072016;28;20398;-72
2022/09/10 02:51:37;;;;;;;2.50;1.97;;;16.20;99.90;;;;;;5073018;28;20383;-72
2022/09/10 02:54:04;;;;;;;2.67;2.03;;;16.20;99.90;;;;;;5071996;28;20483;-72
2022/09/10 02:56:30;;;;;;;2.20;1.50;;;16.10;99.90;;;;;;5071587;28;20445;-71
2022/09/10 02:58:55;;;;;;;2.07;1.87;;;16.20;99.90;;;;;;5070244;28;20387;-72
2022/09/10 03:01:21;;;;;;;2.97;2.07;;;16.10;99.90;;;;;;5069458;28;20407;-71
2022/09/10 03:03:55;;;;;;;3.22;1.85;;;16.20;99.90;;;;;;5069270;28;20806;-72
2022/09/10 03:06:22;;;;;;;2.45;1.50;;;16.20;99.90;;;;;;5069471;28;20375;-72
2022/09/10 03:08:48;;;;;;;2.22;2.00;;;16.20;99.90;;;;;;5069171;28;20404;-72
2022/09/10 03:11:15;;;;;;;2.72;2.05;;;16.20;99.90;;;;;;5069144;28;20390;-72
2022/09/10 03:13:42;;;;;;;2.47;2.13;;;16.20;99.90;;;;;;5087026;28;20399;-72
2022/09/10 03:16:09;;;;;;;2.42;2.20;;;16.10;99.90;;;;;;5070262;28;20697;-72
2022/09/10 03:18:35;;;;;;;1.90;1.70;;;16.10;99.90;;;;;;5073121;28;20676;-72
2022/09/10 03:21:08;;;;;;;2.30;2.10;;;16.10;99.90;;;;;;5073595;28;20399;-71
2022/09/10 03:23:34;;;;;;;3.38;1.80;;;16.10;99.90;;;;;;5073015;28;20386;-72
2022/09/10 03:26:00;;;;;;;2.20;1.83;;;16.10;99.90;;;;;;5076835;28;20483;-71
2022/09/10 03:28:25;;;;;;;4.03;1.90;;;16.10;99.90;;;;;;5076667;28;20383;-71
2022/09/10 03:30:52;;;;;;;2.33;1.90;;;16.10;99.90;;;;;;5077356;28;20491;-71
2022/09/10 03:33:20;;;;;;;4.03;1.98;;;16.10;99.90;;;;;;5077649;28;20442;-71
2022/09/10 03:35:47;;;;;;;3.88;2.00;;;16.10;99.90;;;;;;5074330;28;20379;-71
2022/09/10 03:38:13;;;;;;;2.22;1.70;;;16.10;99.90;;;;;;5074817;28;20414;-72
2022/09/10 03:40:39;;;;;;;2.10;1.90;;;16.10;99.90;;;;;;5073504;28;20498;-72
2022/09/10 03:43:05;;;;;;;2.45;2.13;;;16.10;99.90;;;;;;5073579;28;20780;-72
2022/09/10 03:45:30;;;;;;;3.63;2.30;;;16.10;99.90;;;;;;5073697;28;20380;-72
2022/09/10 03:47:56;;;;;;;2.80;2.13;;;16.10;99.90;;;;;;5070368;28;20398;-71
2022/09/10 03:50:22;;;;;;;1.90;1.80;;;16.10;99.90;;;;;;5072909;28;20395;-71
2022/09/10 03:52:47;;;;;;;2.22;1.63;;;16.10;99.90;;;;;;5071111;28;20466;-71
2022/09/10 03:55:13;;;;;;;1.90;1.70;;;16.10;99.90;;;;;;5074072;28;20526;-72
2022/09/10 03:57:40;;;;;;;1.80;1.70;;;16.10;99.90;;;;;;5074436;28;20411;-71
2022/09/10 04:00:10;;;;;;;2.22;1.73;;;16.20;99.90;;;;;;5070856;28;20684;-72
2022/09/10 04:02:36;;;;;;;3.70;2.00;;;16.10;99.90;;;;;;5069495;28;20376;-72
2022/09/10 04:05:01;;;;;;;2.80;1.70;;;16.10;99.90;;;;;;5070469;28;20411;-72
2022/09/10 04:07:27;;;;;;;2.10;1.90;;;16.20;99.90;;;;;;5073609;28;20423;-71
2022/09/10 04:09:52;;;;;;;2.10;1.90;;;16.10;99.90;;;;;;5073483;28;20733;-71
2022/09/10 04:12:18;;;;;;;3.10;1.70;;;16.10;99.90;;;;;;5072829;28;20570;-71
2022/09/10 04:14:45;;;;;;;2.63;1.70;;;16.10;99.90;;;;;;5071739;28;20392;-71
2022/09/10 04:17:11;;;;;;;2.40;1.90;;;16.10;99.90;;;;;;5069630;28;20395;-71
2022/09/10 04:19:39;;;;;;;1.90;1.70;;;16.10;99.90;;;;;;5064830;28;20637;-71
2022/09/10 04:22:06;;;;;;;2.60;1.95;;;16.10;99.90;;;;;;5064808;28;20625;-71
2022/09/10 04:24:31;;;;;;;2.55;1.83;;;16.10;99.90;;;;;;5063066;28;20526;-72
2022/09/10 04:26:57;;;;;;;2.20;1.83;;;16.10;99.90;;;;;;5062914;28;20380;-71
2022/09/10 04:29:24;;;;;;;3.40;2.00;;;16.10;99.90;;;;;;5065008;28;20703;-71
2022/09/10 04:31:49;;;;;;;1.83;1.70;;;16.10;99.90;;;;;;5083523;28;20418;-72
2022/09/10 04:34:15;;;;;;;2.03;1.83;;;16.10;99.90;;;;;;5069642;28;20419;-72
2022/09/10 04:36:41;;;;;;;2.80;2.00;;;16.00;99.90;;;;;;5071108;28;20415;-71
2022/09/10 04:39:07;;;;;;;2.50;1.80;;;16.00;99.90;;;;;;5071493;28;20419;-71
2022/09/10 04:41:33;;;;;;;2.70;1.80;;;16.00;99.90;;;;;;5069022;28;20511;-72
2022/09/10 04:43:58;;;;;;;3.67;2.00;;;16.00;99.90;;;;;;5071403;28;20453;-72
2022/09/10 04:46:24;;;;;;;3.00;2.27;;;16.00;99.90;;;;;;5069168;28;20712;-72
2022/09/10 04:48:50;;;;;;;2.42;2.10;;;16.00;99.90;;;;;;5067934;28;20510;-72
2022/09/10 04:51:16;;;;;;;2.72;1.83;;;16.00;99.90;;;;;;5070455;28;20391;-72
2022/09/10 04:53:43;;;;;;;3.17;2.10;;;16.00;99.90;;;;;;5069284;28;21000;-72
2022/09/10 04:56:09;;;;;;;3.08;2.20;;;15.90;99.90;;;;;;5086290;28;20649;-71
2022/09/10 04:58:34;;;;;;;2.42;2.20;;;15.90;99.90;;;;;;5069606;28;20651;-71
2022/09/10 05:01:00;;;;;;;2.70;2.08;;;15.90;99.90;;;;;;5069425;28;20414;-71
2022/09/10 05:03:26;;;;;;;1.98;1.77;;;15.80;99.90;;;;;;5068503;28;20380;-71
2022/09/10 05:05:51;;;;;;;2.00;1.73;;;15.90;99.90;;;;;;5066957;28;20533;-71
2022/09/10 05:08:17;;;;;;;2.73;2.10;;;15.90;99.90;;;;;;5067039;28;20391;-71
2022/09/10 05:10:44;;;;;;;3.50;1.70;;;15.90;99.90;;;;;;5068241;28;20391;-71
2022/09/10 05:13:10;;;;;;;2.90;1.80;;;15.90;99.90;;;;;;5066247;28;20388;-71
2022/09/10 05:15:39;;;;;;;3.15;2.28;;;15.90;99.90;;;;;;5065962;28;20387;-72
2022/09/10 05:18:04;;;;;;;2.38;2.05;;;15.90;99.90;;;;;;5066826;28;20422;-71
2022/09/10 05:20:30;;;;;;;2.38;2.00;;;15.90;99.90;;;;;;5068010;28;20407;-72
2022/09/10 05:22:56;;;;;;;2.75;2.05;;;15.90;99.90;;;;;;5067697;28;20834;-72
2022/09/10 05:25:23;;;;;;;2.27;2.00;;;15.90;99.90;;;;;;5067756;28;20794;-72
2022/09/10 05:27:50;;;;;;;3.63;2.10;;;15.90;99.90;;;;;;5071096;28;20454;-72
2022/09/10 05:30:16;;;;;;;2.53;2.08;;;15.90;99.90;;;;;;5069503;28;20786;-72
2022/09/10 05:32:41;;;;;;;2.50;2.20;;;15.90;99.90;;;;;;5068873;28;20379;-72
2022/09/10 05:35:08;;;;;;;3.40;2.10;;;15.90;99.90;;;;;;5068804;28;20394;-72
2022/09/10 05:37:33;;;;;;;2.70;2.15;;;15.90;99.90;;;;;;5071652;28;20394;-72
2022/09/10 05:39:59;;;;;;;2.30;2.10;;;15.90;99.90;;;;;;5069492;28;20676;-72
2022/09/10 05:42:27;;;;;;;2.80;2.22;;;15.90;99.90;;;;;;5085305;28;21776;-71
2022/09/10 05:44:52;;;;;;;2.50;2.30;;;15.90;99.90;;;;;;5071594;28;20399;-71
2022/09/10 05:47:18;;;;;;;4.87;2.70;;;15.90;99.90;;;;;;5069152;28;20392;-71
2022/09/10 05:49:45;;;;;;;3.70;2.60;;;15.80;99.90;;;;;;5070158;28;20589;-71
2022/09/10 05:52:11;;;;;;;3.15;2.67;;;15.80;99.90;;;;;;5069641;28;20392;-71
2022/09/10 05:54:37;;;;;;;2.47;2.10;;;15.70;99.90;;;;;;5069346;28;20550;-71
2022/09/10 05:57:03;;;;;;;2.93;2.33;;;15.80;99.90;;;;;;5087446;28;20798;-72
2022/09/10 05:59:28;;;;;;;5.43;2.67;;;15.80;99.90;;;;;;5067980;28;20400;-71
2022/09/10 06:01:54;;;;;;;3.70;2.70;;;15.80;99.90;;;;;;5066326;28;20456;-72
2022/09/10 06:04:20;;;;;;;2.27;2.07;;;15.80;99.90;;;;;;5063419;28;20419;-71
2022/09/10 06:06:49;;;;;;;2.95;2.38;;;15.90;99.90;;;;;;5079350;28;20387;-71
2022/09/10 06:09:14;;;;;;;3.55;2.47;;;15.90;99.90;;;;;;5062770;28;20669;-71
2022/09/10 06:11:40;;;;;;;3.08;2.50;;;15.90;99.90;;;;;;5060314;28;20732;-71
2022/09/10 06:14:06;;;;;;;3.50;2.53;;;16.00;99.90;;;;;;5059805;28;20616;-71
2022/09/10 06:16:32;;;;;;;2.67;2.40;;;16.00;99.90;;;;;;5061626;28;20403;-71
2022/09/10 06:18:58;;;;;;;4.25;2.40;;;16.00;99.90;;;;;;5060762;28;20380;-71
2022/09/10 06:21:23;;;;;;;3.13;2.43;;;16.00;99.90;;;;;;5061909;28;20405;-71
2022/09/10 06:23:53;;;;;;;2.63;2.23;;;16.00;99.90;;;;;;5061689;28;20545;-71
2022/09/10 06:26:19;;;;;;;2.40;2.20;;;16.10;99.90;;;;;;5061629;28;20779;-71
2022/09/10 06:28:45;;;;;;;2.72;2.30;;;16.10;99.90;;;;;;5063539;28;20387;-71
2022/09/10 06:31:15;;;;;;;3.67;2.40;;;16.20;99.90;;;;;;5061966;28;20383;-71
2022/09/10 06:33:42;;;;;;;2.88;2.50;;;16.20;99.90;;;;;;5063004;28;20384;-71
2022/09/10 06:36:08;;;;;;;2.90;2.35;;;16.20;99.90;;;;;;5061733;28;20398;-72
2022/09/10 06:38:34;;;;;;;3.10;2.30;;;16.20;99.90;;;;;;5060396;28;20380;-72
2022/09/10 06:41:04;;;;;;;3.42;2.67;;;16.20;99.90;;;;;;5059862;28;20408;-72
2022/09/10 06:43:32;;;;;;;3.78;2.58;;;16.20;99.90;;;;;;5058396;28;20391;-72
2022/09/10 06:45:58;;;;;;;2.63;2.10;;;16.20;99.90;;;;;;5072847;28;20548;-72
2022/09/10 06:48:27;;;;;;;2.60;2.38;;;16.30;99.90;;;;;;5056838;28;20376;-72
2022/09/10 06:50:55;;;;;;;2.80;2.17;;;16.30;99.90;;;;;;5055253;28;20379;-72
2022/09/10 06:53:21;;;;;;;3.20;2.90;;;16.40;99.90;;;;;;5055955;28;20502;-72
2022/09/10 06:55:51;;;;;;;3.20;2.40;;;16.40;99.90;;;;;;5056449;28;20400;-72
2022/09/10 06:58:18;;;;;;;3.85;3.20;;;16.30;99.90;;;;;;5056656;28;20471;-70
2022/09/10 07:00:46;;;;;;;3.30;3.00;;;16.30;99.90;;;;;;5060280;28;20400;-70
2022/09/10 07:03:16;;;;;;;4.13;2.70;;;16.30;99.90;;;;;;5061090;28;20386;-71
2022/09/10 07:05:42;;;;;;;3.65;2.72;;;16.30;99.90;;;;;;5061344;28;20400;-71
2022/09/10 07:08:11;;;;;;;5.05;3.40;;;16.40;99.90;;;;;;5061252;28;20402;-71
2022/09/10 07:10:37;;;;;;;5.80;3.70;;;16.30;99.90;;;;;;5061499;28;20722;-71
2022/09/10 07:13:03;;;;;;;4.47;3.22;;;16.30;99.90;;;;;;5062956;28;20694;-71
2022/09/10 07:15:29;;;;;;;4.38;3.05;;;16.30;99.90;;;;;;5057478;28;20391;-71
2022/09/10 07:17:55;;;;;;;4.30;2.65;;;16.30;99.90;;;;;;5061703;28;20767;-71
2022/09/10 07:20:24;;;;;;;3.33;2.47;;;16.40;99.90;;;;;;5061674;28;20418;-70
2022/09/10 07:22:55;;;;;;;3.67;3.10;;;16.50;99.90;;;;;;5061969;28;20387;-70
2022/09/10 07:25:22;;;;;;;4.15;3.15;;;16.60;99.90;;;;;;5062216;28;20402;-70
2022/09/10 07:27:49;;;;;;;3.20;2.90;;;16.60;99.90;;;;;;5062196;28;20822;-71
2022/09/10 07:30:15;;;;;;;3.53;3.03;;;16.70;99.90;;;;;;5060516;28;20380;-70
2022/09/10 07:32:42;;;;;;;3.88;3.47;;;16.70;99.90;;;;;;5061691;28;20441;-71
2022/09/10 07:35:08;;;;;;;3.47;3.17;;;16.70;99.90;;;;;;5078462;28;20495;-71
2022/09/10 07:37:34;;;;;;;3.45;3.15;;;16.70;99.90;;;;;;5061955;28;20502;-71
2022/09/10 07:40:00;;;;;;;3.83;3.20;;;16.70;99.90;;;;;;5060318;28;20439;-71
2022/09/10 07:42:25;;;;;;;3.30;3.00;;;16.80;99.90;;;;;;5059725;28;20415;-71
2022/09/10 07:44:51;;;;;;;3.57;3.27;;;16.80;99.90;;;;;;5060033;28;20452;-71
2022/09/10 07:47:17;;;;;;;5.57;4.95;;;16.80;99.90;;;;;;5058940;28;20754;-71
2022/09/10 07:49:43;;;;;;;3.90;3.60;;;16.70;99.90;;;;;;5057128;28;20454;-71
2022/09/10 07:52:10;;;;;;;4.68;4.25;;;16.70;99.90;;;;;;5058246;28;21067;-71
2022/09/10 07:54:36;;;;;;;5.40;4.30;;;16.70;99.90;;;;;;5056459;28;20760;-71
2022/09/10 07:57:03;;;;;;;5.70;4.90;;;16.70;99.90;;;;;;5055907;28;20618;-71
2022/09/10 07:59:29;;;;;;;3.83;3.42;;;16.80;99.90;;;;;;5055513;28;20395;-71
2022/09/10 08:01:55;;;;;;;3.50;3.20;;;16.80;99.90;;;;;;5057824;28;20727;-71
2022/09/10 08:04:20;;;;;;;3.63;3.25;;;16.90;99.90;;;;;;5075210;28;20838;-71
2022/09/10 08:06:46;;;;;;;3.47;2.92;;;17.00;99.90;;;;;;5055281;28;20731;-71
2022/09/10 08:09:13;;;;;;;5.22;4.07;;;17.00;99.90;;;;;;5053715;28;20663;-71
2022/09/10 08:11:39;;;;;;;5.05;4.63;;;17.10;99.90;;;;;;5053337;28;20391;-70
2022/09/10 08:14:05;;;;;;;4.53;3.90;;;17.00;99.90;;;;;;5059494;28;20386;-71
2022/09/10 08:16:32;;;;;;;4.85;4.35;;;17.00;99.90;;;;;;5059835;28;20390;-72
2022/09/10 08:18:59;;;;;;;3.90;3.60;;;17.10;99.90;;;;;;5059003;28;20379;-72
2022/09/10 08:21:25;;;;;;;7.57;6.47;;;17.20;99.90;;;;;;5062076;28;20396;-72
2022/09/10 08:23:53;;;;;;;8.05;7.20;;;17.10;99.90;;;;;;5062644;28;20460;-73
2022/09/10 08:26:22;;;;;;;8.18;7.25;;;17.10;99.90;;;;;;5060165;28;20387;-72
2022/09/10 08:28:51;;;;;;;10.00;7.53;;;17.00;99.90;;;;;;5057483;28;20653;-73
2022/09/10 08:31:17;;;;;;;7.13;6.43;;;17.00;99.90;;;;;;5056846;28;20384;-70
2022/09/10 08:33:51;;;;;;;8.15;7.25;;;17.00;99.90;;;;;;5055520;28;20384;-71
2022/09/10 08:36:17;;;;;;;7.20;6.50;;;17.00;99.90;;;;;;5058787;28;20411;-70
2022/09/10 08:38:44;;;;;;;8.30;7.47;;;17.10;99.90;;;;;;5055703;28;20826;-71
2022/09/10 08:41:17;;;;;;;13.20;9.23;;;17.00;99.90;;;;;;5054765;28;20628;-70
2022/09/10 08:43:50;;;;;;;9.77;7.75;;;17.00;99.90;;;;;;5055096;28;20392;-70
2022/09/10 08:46:22;;;;;;;6.33;5.40;;;17.00;99.90;;;;;;5056003;28;20380;-71
2022/09/10 08:48:53;;;;;;;5.85;5.35;;;17.10;99.90;;;;;;5058993;28;20483;-71
2022/09/10 08:51:26;;;;;;;9.73;8.77;;;17.20;99.90;;;;;;5058436;28;20799;-71
2022/09/10 08:54:10;;;;;;;12.97;11.03;;;17.30;99.90;;;;;;5059800;28;21024;-71
2022/09/10 08:56:38;;;;;;;10.45;9.38;;;17.20;99.90;;;;;;5060446;28;20388;-71
2022/09/10 08:59:20;;;;;;;9.60;8.70;;;17.10;99.90;;;;;;5058110;28;20537;-71
2022/09/10 09:02:41;;;;;;;10.07;9.07;;;17.20;99.90;;;;;;5057397;28;20403;-71
2022/09/10 09:05:18;;;;;;;10.40;9.10;;;17.20;99.90;;;;;;4961885;28;20442;-71
2022/09/10 09:07:45;;;;;;;12.75;11.45;;;17.30;99.90;;;;;;5045808;28;20551;-71
2022/09/10 09:10:24;;;;;;;9.55;8.75;;;17.20;99.90;;;;;;5058288;28;20464;-71
2022/09/10 09:13:18;;;;;;;11.73;9.57;;;17.30;99.90;;;;;;5055778;28;20396;-72
2022/09/10 09:15:50;;;;;;;7.47;6.78;;;17.40;99.90;;;;;;5057153;28;20415;-71
2022/09/10 09:18:34;;;;;;;13.73;12.30;;;17.50;99.90;;;;;;5057659;28;20376;-71
2022/09/10 09:21:19;;;;;;;12.80;11.30;;;17.50;99.90;;;;;;5057342;28;20807;-72
2022/09/10 09:23:54;;;;;;;13.27;11.90;;;17.50;99.90;;;;;;5060543;28;20387;-73
2022/09/10 09:26:23;;;;;;;11.85;10.65;;;17.50;99.90;;;;;;5061495;28;20457;-71
2022/09/10 09:29:04;;;;;;;12.40;11.10;;;17.70;99.90;;;;;;5059045;28;20657;-71
2022/09/10 09:31:39;;;;;;;10.80;9.70;;;17.80;99.90;;;;;;5059453;28;20384;-71
2022/09/10 09:34:18;;;;;;;13.85;12.43;;;17.80;99.90;;;;;;5075076;28;20392;-70
2022/09/10 09:36:50;;;;;;;9.02;8.23;;;17.80;99.90;;;;;;5059170;28;20379;-71
2022/09/10 09:39:22;;;;;;;10.13;9.23;;;18.00;99.90;;;;;;5060085;28;20396;-71
2022/09/10 09:42:18;;;;;;;12.43;11.23;;;18.20;99.90;;;;;;5057469;28;20722;-72
2022/09/10 09:44:54;;;;;;;6.97;6.37;;;18.10;99.90;;;;;;5056369;28;20456;-71
2022/09/10 09:47:20;;;;;;;6.60;5.55;;;18.30;99.90;;;;;;5055891;28;20689;-71
2022/09/10 09:49:45;;;;;;;8.77;7.47;;;18.40;99.90;;;;;;5049315;28;20623;-71
2022/09/10 09:52:22;;;;;;;8.23;7.45;;;18.50;99.90;;;;;;5055853;28;20387;-72
2022/09/10 09:54:52;;;;;;;7.28;6.57;;;18.40;99.90;;;;;;5057261;28;20849;-71
2022/09/10 09:57:19;;;;;;;7.03;6.28;;;18.50;99.90;;;;;;5060189;28;20630;-71
2022/09/10 09:59:48;;;;;;;9.60;8.73;;;18.60;99.90;;;;;;5058406;28;20395;-73
2022/09/10 10:02:23;;;;;;;12.40;10.77;;;18.70;99.90;;;;;;5060009;28;20387;-72
2022/09/10 10:05:24;;;;;;;12.27;10.20;;;18.40;99.90;;;;;;5060581;28;20428;-72
2022/09/10 10:07:49;;;;;;;6.78;6.18;;;18.40;99.90;;;;;;5075989;28;20663;-71
2022/09/10 10:10:25;;;;;;;7.03;6.43;;;18.40;99.90;;;;;;5061148;28;20399;-71
2022/09/10 10:12:53;;;;;;;7.50;6.57;;;18.50;99.90;;;;;;5058591;28;20449;-71
2022/09/10 10:15:40;;;;;;;10.55;9.45;;;18.50;99.90;;;;;;5059196;28;20467;-72
2022/09/10 10:18:21;;;;;;;11.20;10.10;;;18.50;99.90;;;;;;5059134;28;20383;-72
2022/09/10 10:20:48;;;;;;;9.68;8.30;;;18.30;99.90;;;;;;5056947;28;20988;-72
2022/09/10 10:23:36;;;;;;;8.90;7.53;;;18.30;99.90;;;;;;5055267;28;20623;-72
2022/09/10 10:26:31;;;;;;;8.45;7.72;;;18.40;99.90;;;;;;5054966;28;20419;-72
2022/09/10 10:29:06;;;;;;;5.97;5.47;;;18.50;99.90;;;;;;5053793;28;20395;-71
2022/09/10 10:31:43;;;;;;;7.30;6.57;;;18.60;99.90;;;;;;5056120;28;20499;-71
2022/09/10 10:34:28;;;;;;;7.65;6.95;;;18.70;99.90;;;;;;5056987;28;20558;-71
2022/09/10 10:36:59;;;;;;;13.50;10.30;;;18.80;99.90;;;;;;5056982;28;20410;-71
2022/09/10 10:39:49;;;;;;;10.70;9.40;;;18.70;99.90;;;;;;5058657;28;20676;-71
2022/09/10 10:42:32;;;;;;;7.40;6.70;;;18.70;99.90;;;;;;5054127;28;20793;-72
2022/09/10 10:45:20;;;;;;;14.13;10.77;;;18.70;99.90;;;;;;5051761;28;20456;-72
2022/09/10 10:47:50;;;;;;;12.80;10.25;;;18.70;99.90;;;;;;5051464;28;20380;-72
2022/09/10 10:50:24;;;;;;;6.57;5.63;;;18.60;99.90;;;;;;5052819;28;20714;-72
2022/09/10 10:53:24;;;;;;;7.22;5.85;;;18.80;99.90;;;;;;5053815;28;20600;-72
2022/09/10 10:55:55;;;;;;;8.43;7.63;;;18.90;99.90;;;;;;5049060;28;20387;-72
2022/09/10 10:58:54;;;;;;;7.50;6.80;;;19.00;99.90;;;;;;5054276;28;20709;-72
2022/09/10 11:01:27;;;;;;;5.80;4.90;;;18.90;99.90;;;;;;5055782;28;20410;-71
2022/09/10 11:04:28;;;;;;;6.03;5.53;;;19.00;99.90;;;;;;5054722;28;20407;-71
2022/09/10 11:07:08;;;;;;;4.80;4.28;;;19.10;99.90;;;;;;5048818;28;20531;-71
2022/09/10 11:09:47;;;;;;;6.35;5.75;;;19.10;99.90;;;;;;5048871;28;20431;-71
2022/09/10 11:12:49;;;;;;;4.37;4.00;;;19.20;99.90;;;;;;5052159;28;20785;-71
2022/09/10 11:15:40;;;;;;;9.02;7.57;;;19.30;99.90;;;;;;5047949;28;20667;-72
2022/09/10 11:18:19;;;;;;;9.88;7.68;;;19.40;99.90;;;;;;5049978;28;20468;-71
2022/09/10 11:20:55;;;;;;;8.50;7.50;;;19.30;99.90;;;;;;5059056;28;20477;-71
2022/09/10 11:23:38;;;;;;;9.02;8.07;;;19.30;99.90;;;;;;5080940;28;20393;-70
2022/09/10 11:26:13;;;;;;;10.03;7.70;;;19.30;99.90;;;;;;5066732;28;20375;-71
2022/09/10 11:29:03;;;;;;;5.60;5.00;;;19.30;99.90;;;;;;5065511;28;20691;-71
2022/09/10 11:31:41;;;;;;;6.95;5.15;;;19.50;99.90;;;;;;5040478;28;20624;-71
2022/09/10 11:34:31;;;;;;;11.40;8.60;;;19.60;99.90;;;;;;5062438;28;20395;-71
2022/09/10 11:37:05;;;;;;;7.72;5.60;;;19.70;99.90;;;;;;5065915;28;20388;-63
2022/09/10 11:39:34;;;;;;;6.18;5.57;;;19.70;99.90;;;;;;5062912;28;20483;-63
2022/09/10 11:42:12;;;;;;;4.75;4.25;;;19.80;99.90;;;;;;5062961;28;20407;-63
2022/09/10 11:44:55;;;;;;;4.97;4.47;;;20.10;99.90;;;;;;5060915;28;20756;-63
2022/09/10 11:47:30;;;;;;;4.60;3.53;;;20.30;99.90;;;;;;5062464;28;20384;-63
2022/09/10 11:50:09;;;;;;;4.00;3.45;;;20.50;99.90;;;;;;5065017;28;21047;-63
2022/09/10 11:52:34;;;;;;;6.30;5.70;;;20.80;99.90;;;;;;5066941;28;20402;-63
2022/09/10 11:55:02;;;;;;;5.45;4.95;;;20.80;99.90;;;;;;5067405;28;20707;-63
2022/09/10 11:57:50;;;;;;;6.75;6.07;;;20.80;99.90;;;;;;5065978;28;20388;-63
2022/09/10 12:00:17;;;;;;;4.50;4.10;;;20.70;99.90;;;;;;5066062;28;20623;-63
2022/09/10 12:03:05;;;;;;;5.43;4.57;;;20.70;99.90;;;;;;5067864;28;20387;-63
2022/09/10 12:06:08;;;;;;;4.33;3.90;;;20.80;99.90;;;;;;5069534;28;20683;-71
2022/09/10 12:09:01;;;;;;;3.50;2.90;;;21.40;99.90;;;;;;5067832;28;20384;-71
2022/09/10 12:11:35;;;;;;;4.15;3.38;;;22.10;99.90;;;;;;5068559;28;20388;-71
2022/09/10 12:14:14;;;;;;;7.10;5.15;;;22.70;99.90;;;;;;5070363;28;20383;-71
2022/09/10 12:16:46;;;;;;;3.30;3.00;;;22.50;99.90;;;;;;5069998;28;20414;-71
2022/09/10 12:19:21;;;;;;;4.40;2.53;;;22.50;99.90;;;;;;5070017;28;20379;-72
2022/09/10 12:21:51;;;;;;;3.60;3.03;;;22.70;99.90;;;;;;5067185;28;20429;-72
2022/09/10 12:24:32;;;;;;;3.78;3.03;;;23.10;99.90;;;;;;5084185;28;20391;-71
2022/09/10 12:27:02;;;;;;;3.80;3.42;;;23.40;99.90;;;;;;5066485;28;20467;-71
2022/09/10 12:29:36;;;;;;;4.83;2.37;;;23.30;99.90;;;;;;5064630;28;20384;-71
2022/09/10 12:32:22;;;;;;;4.15;2.95;;;23.70;99.90;;;;;;5062226;28;20411;-72
2022/09/10 12:35:36;;;;;;;2.20;2.00;;;23.40;99.90;;;;;;5055595;28;21105;-71
2022/09/10 12:38:40;;;;;;;3.20;2.90;;;23.30;99.90;;;;;;5061809;28;20390;-71
2022/09/10 12:41:35;;;;;;;3.58;2.88;;;23.30;99.90;;;;;;5061174;28;20461;-71
2022/09/10 12:44:17;;;;;;;2.40;2.20;;;23.10;99.90;;;;;;5059010;28;20384;-71
2022/09/10 12:46:43;;;;;;;3.95;2.63;;;22.70;99.90;;;;;;5059330;28;20372;-71
2022/09/10 12:49:12;;;;;;;1.70;1.60;;;22.60;99.90;;;;;;5077926;28;20680;-71
2022/09/10 12:51:50;;;;;;;2.97;2.45;;;22.50;99.90;;;;;;5065834;28;20391;-71
2022/09/10 12:54:30;;;;;;;4.30;3.90;;;22.50;99.90;;;;;;5063696;28;20464;-71
2022/09/10 12:57:07;;;;;;;4.28;3.70;;;22.20;99.90;;;;;;5063696;28;20391;-71
2022/09/10 12:59:45;;;;;;;4.03;3.72;;;21.90;99.90;;;;;;5063878;28;20466;-71
2022/09/10 13:02:58;;;;;;;2.83;2.63;;;21.80;99.90;;;;;;5064084;28;20745;-71
2022/09/10 13:05:28;;;;;;;3.72;2.65;;;21.70;99.90;;;;;;5057913;28;20490;-70
2022/09/10 13:08:17;;;;;;;3.25;2.80;;;21.90;99.90;;;;;;5064567;28;20465;-71
2022/09/10 13:10:58;;;;;;;3.42;2.50;;;21.70;99.90;;;;;;5064565;28;20419;-72